createdAt,value
2018-02-02T00:01:37.405Z,26.80
2018-02-02T00:04:05.661Z,25.83
2018-02-02T00:06:33.143Z,22.33
2018-02-02T00:09:01.369Z,20.40
2018-02-02T00:11:28.845Z,22.97
2018-02-02T00:13:56.297Z,25.50
2018-02-02T00:16:23.805Z,24.13
2018-02-02T00:18:51.265Z,18.50
2018-02-02T00:21:18.718Z,12.23
2018-02-02T00:23:46.202Z,18.93
2018-02-02T00:26:13.667Z,20.13
2018-02-02T00:28:41.150Z,21.17
2018-02-02T00:31:08.615Z,22.37
2018-02-02T00:33:36.070Z,17.47
2018-02-02T00:36:03.556Z,21.57
2018-02-02T00:38:31.037Z,22.67
2018-02-02T00:40:58.495Z,19.80
2018-02-02T00:43:25.968Z,26.90
2018-02-02T00:45:53.546Z,23.43
2018-02-02T00:48:21.010Z,20.23
2018-02-02T00:50:54.137Z,21.87
2018-02-02T00:53:22.420Z,21.70
2018-02-02T00:55:49.863Z,23.90
2018-02-02T00:58:18.176Z,18.80
2018-02-02T01:00:45.653Z,26.97
2018-02-02T01:03:13.175Z,34.03
2018-02-02T01:05:40.617Z,21.03
2018-02-02T01:08:08.102Z,17.50
2018-02-02T01:10:35.557Z,11.13
2018-02-02T01:13:03.044Z,22.87
2018-02-02T01:15:30.517Z,27.40
2018-02-02T01:17:58.005Z,25.07
2018-02-02T01:20:26.237Z,34.50
2018-02-02T01:22:53.741Z,24.73
2018-02-02T01:25:22.085Z,24.50
2018-02-02T01:27:49.562Z,25.17
2018-02-02T01:30:17.029Z,20.47
2018-02-02T01:32:44.512Z,17.70
2018-02-02T01:35:11.977Z,23.57
2018-02-02T01:37:39.477Z,24.13
2018-02-02T01:40:06.970Z,25.53
2018-02-02T01:42:34.425Z,26.80
2018-02-02T01:45:02.677Z,21.20
2018-02-02T01:47:30.164Z,26.73
2018-02-02T01:49:58.390Z,25.23
2018-02-02T01:52:25.865Z,21.57
2018-02-02T01:54:53.329Z,23.20
2018-02-02T01:57:21.581Z,22.70
2018-02-02T01:59:49.036Z,19.03
2018-02-02T02:02:16.544Z,20.77
2018-02-02T02:04:44.779Z,22.47
2018-02-02T02:07:12.242Z,23.63
2018-02-02T02:09:40.497Z,22.63
2018-02-02T02:12:08.006Z,22.80
2018-02-02T02:14:35.465Z,22.17
2018-02-02T02:17:02.929Z,30.37
2018-02-02T02:19:30.480Z,21.03
2018-02-02T02:21:58.000Z,25.67
2018-02-02T02:24:25.462Z,26.50
2018-02-02T02:26:52.920Z,29.10
2018-02-02T02:29:20.429Z,27.20
2018-02-02T02:31:48.661Z,27.23
2018-02-02T02:34:16.149Z,28.57
2018-02-02T02:36:43.619Z,20.60
2018-02-02T02:39:12.954Z,21.50
2018-02-02T02:41:40.410Z,21.43
2018-02-02T02:44:07.905Z,36.47
2018-02-02T02:46:35.365Z,20.73
2018-02-02T02:49:02.822Z,15.47
2018-02-02T02:51:30.318Z,20.33
2018-02-02T02:53:57.790Z,24.00
2018-02-02T02:56:25.283Z,29.90
2018-02-02T02:58:52.750Z,23.63
2018-02-02T03:01:20.993Z,11.37
2018-02-02T03:03:48.453Z,23.77
2018-02-02T03:06:15.919Z,26.43
2018-02-02T03:08:44.503Z,22.37
2018-02-02T03:11:11.965Z,27.07
2018-02-02T03:13:39.620Z,20.47
2018-02-02T03:16:07.078Z,21.03
2018-02-02T03:18:34.575Z,13.67
2018-02-02T03:21:02.035Z,15.50
2018-02-02T03:23:29.489Z,20.43
2018-02-02T03:25:56.975Z,19.30
2018-02-02T03:28:24.446Z,20.77
2018-02-02T03:30:51.928Z,14.93
2018-02-02T03:33:19.394Z,14.10
2018-02-02T03:35:46.869Z,20.63
2018-02-02T03:38:14.401Z,17.17
2018-02-02T03:40:41.880Z,16.70
2018-02-02T03:43:09.357Z,13.10
2018-02-02T03:45:36.818Z,16.60
2018-02-02T03:48:04.305Z,18.00
2018-02-02T03:50:31.790Z,14.47
2018-02-02T03:52:59.269Z,12.47
2018-02-02T03:55:26.726Z,13.60
2018-02-02T03:57:54.209Z,14.40
2018-02-02T04:00:21.670Z,14.77
2018-02-02T04:02:49.192Z,10.67
2018-02-02T04:05:16.672Z,14.03
2018-02-02T04:07:44.125Z,18.17
2018-02-02T04:10:11.605Z,26.47
2018-02-02T04:12:39.078Z,12.23
2018-02-02T04:15:06.572Z,16.47
2018-02-02T04:17:34.029Z,25.00
2018-02-02T04:20:01.518Z,11.73
2018-02-02T04:22:28.969Z,16.17
2018-02-02T04:24:56.429Z,11.07
2018-02-02T04:27:23.899Z,8.57
2018-02-02T04:29:51.398Z,6.70
2018-02-02T04:32:19.641Z,8.53
2018-02-02T04:34:48.530Z,11.60
2018-02-02T04:37:16.018Z,27.70
2018-02-02T04:39:43.478Z,10.17
2018-02-02T04:42:10.953Z,13.53
2018-02-02T04:44:39.182Z,5.33
2018-02-02T04:47:06.653Z,3.83
2018-02-02T04:49:34.127Z,12.57
2018-02-02T04:52:01.636Z,16.40
2018-02-02T04:54:29.097Z,10.00
2018-02-02T04:56:56.554Z,4.80
2018-02-02T04:59:24.049Z,29.43
2018-02-02T05:01:51.521Z,20.90
2018-02-02T05:04:18.998Z,6.37
2018-02-02T05:06:47.213Z,9.83
2018-02-02T05:09:14.688Z,9.03
2018-02-02T05:11:42.164Z,7.97
2018-02-02T05:14:09.646Z,17.23
2018-02-02T05:16:37.115Z,15.83
2018-02-02T05:19:04.598Z,4.00
2018-02-02T05:21:32.081Z,12.90
2018-02-02T05:23:59.562Z,17.80
2018-02-02T05:26:27.017Z,16.67
2018-02-02T05:28:54.557Z,17.70
2018-02-02T05:31:22.034Z,9.93
2018-02-02T05:33:49.509Z,15.93
2018-02-02T05:36:16.960Z,17.20
2018-02-02T05:38:44.437Z,26.73
2018-02-02T05:41:11.924Z,20.63
2018-02-02T05:43:39.405Z,25.90
2018-02-02T05:46:06.892Z,21.83
2018-02-02T05:48:35.134Z,6.70
2018-02-02T05:51:02.628Z,18.63
2018-02-02T05:53:30.866Z,14.77
2018-02-02T05:55:58.338Z,10.83
2018-02-02T05:58:25.823Z,5.57
2018-02-02T06:00:54.062Z,7.73
2018-02-02T06:03:21.541Z,4.00
2018-02-02T06:05:49.006Z,2.73
2018-02-02T06:08:16.523Z,3.43
2018-02-02T06:10:43.975Z,6.87
2018-02-02T06:13:11.425Z,3.87
2018-02-02T06:15:38.890Z,3.23
2018-02-02T06:18:06.382Z,5.40
2018-02-02T06:20:33.838Z,7.90
2018-02-02T06:23:01.310Z,3.67
2018-02-02T06:25:29.158Z,6.40
2018-02-02T06:27:56.607Z,10.20
2018-02-02T06:30:24.100Z,12.33
2018-02-02T06:32:51.585Z,4.63
2018-02-02T06:35:19.127Z,3.33
2018-02-02T06:37:47.368Z,7.53
2018-02-02T06:40:14.865Z,12.83
2018-02-02T06:42:43.202Z,6.00
2018-02-02T06:45:10.651Z,5.40
2018-02-02T06:47:38.105Z,2.77
2018-02-02T06:50:05.590Z,5.73
2018-02-02T06:52:33.061Z,8.23
2018-02-02T06:55:00.542Z,5.73
2018-02-02T06:57:27.996Z,9.77
2018-02-02T06:59:55.470Z,13.20
2018-02-02T07:02:22.967Z,10.27
2018-02-02T07:04:51.192Z,3.47
2018-02-02T07:07:18.651Z,2.80
2018-02-02T07:09:46.891Z,5.30
2018-02-02T07:12:14.346Z,9.50
2018-02-02T07:14:41.818Z,9.10
2018-02-02T07:17:09.309Z,8.73
2018-02-02T07:19:36.866Z,2.37
2018-02-02T07:22:04.318Z,3.23
2018-02-02T07:24:32.561Z,4.00
2018-02-02T07:27:00.038Z,5.20
2018-02-02T07:29:28.261Z,5.90
2018-02-02T07:31:55.743Z,10.10
2018-02-02T07:34:23.193Z,5.40
2018-02-02T07:36:50.673Z,7.57
2018-02-02T07:39:18.130Z,7.93
2018-02-02T07:41:45.605Z,9.07
2018-02-02T07:44:13.826Z,9.07
2018-02-02T07:46:41.309Z,9.43
2018-02-02T07:49:08.856Z,7.50
2018-02-02T07:51:36.354Z,9.77
2018-02-02T07:54:03.802Z,8.50
2018-02-02T07:56:31.290Z,12.90
2018-02-02T07:58:58.746Z,15.30
2018-02-02T08:01:26.966Z,9.43
2018-02-02T08:03:54.449Z,18.00
2018-02-02T08:06:21.913Z,11.90
2018-02-02T08:08:49.490Z,12.43
2018-02-02T08:11:17.750Z,15.17
2018-02-02T08:13:45.205Z,11.03
2018-02-02T08:16:12.662Z,13.60
2018-02-02T08:18:40.157Z,9.93
2018-02-02T08:21:07.614Z,19.70
2018-02-02T08:23:35.146Z,11.43
2018-02-02T08:26:02.618Z,15.57
2018-02-02T08:28:30.964Z,13.37
2018-02-02T08:30:58.449Z,12.10
2018-02-02T08:33:26.690Z,16.30
2018-02-02T08:35:54.156Z,11.77
2018-02-02T08:38:21.662Z,6.07
2018-02-02T08:40:49.157Z,8.73
2018-02-02T08:43:16.609Z,8.47
2018-02-02T08:45:44.090Z,9.10
2018-02-02T08:48:11.534Z,4.33
2018-02-02T08:50:39.010Z,2.13
2018-02-02T08:53:06.454Z,2.73
2018-02-02T08:55:33.932Z,3.70
2018-02-02T08:58:01.381Z,1.80
2018-02-02T09:00:28.856Z,5.67
2018-02-02T09:02:56.306Z,1.93
2018-02-02T09:05:23.801Z,1.77
2018-02-02T09:07:51.361Z,1.57
2018-02-02T09:10:19.618Z,3.70
2018-02-02T09:12:47.105Z,1.63
2018-02-02T09:15:14.589Z,7.67
2018-02-02T09:17:42.069Z,1.57
2018-02-02T09:20:09.534Z,5.90
2018-02-02T09:22:36.981Z,3.13
2018-02-02T09:25:04.458Z,1.47
2018-02-02T09:27:31.414Z,3.80
2018-02-02T09:29:59.753Z,3.30
2018-02-02T09:32:27.214Z,7.30
2018-02-02T09:34:54.747Z,3.10
2018-02-02T09:37:22.214Z,4.50
2018-02-02T09:39:49.724Z,6.90
2018-02-02T09:42:17.193Z,2.40
2018-02-02T09:44:45.412Z,3.40
2018-02-02T09:47:12.886Z,3.67
2018-02-02T09:49:40.393Z,2.60
2018-02-02T09:52:07.826Z,3.03
2018-02-02T09:54:35.274Z,1.50
2018-02-02T09:57:02.734Z,4.30
2018-02-02T09:59:30.230Z,1.73
2018-02-02T10:01:58.444Z,2.00
2018-02-02T10:04:25.900Z,6.47
2018-02-02T10:06:53.373Z,4.20
2018-02-02T10:09:20.855Z,4.50
2018-02-02T10:11:48.309Z,7.33
2018-02-02T10:14:15.784Z,8.10
2018-02-02T10:16:43.997Z,8.47
2018-02-02T10:19:11.472Z,12.43
2018-02-02T10:21:38.913Z,8.97
2018-02-02T10:24:06.394Z,20.50
2018-02-02T10:26:33.846Z,3.13
2018-02-02T10:29:01.318Z,16.90
2018-02-02T10:31:28.790Z,5.57
2018-02-02T10:33:56.238Z,12.27
2018-02-02T10:36:23.733Z,10.70
2018-02-02T10:38:52.014Z,3.53
2018-02-02T10:41:20.254Z,12.37
2018-02-02T10:43:47.761Z,8.83
2018-02-02T10:46:15.205Z,7.77
2018-02-02T10:48:43.442Z,12.20
2018-02-02T10:51:10.934Z,12.47
2018-02-02T10:53:39.156Z,6.57
2018-02-02T10:56:06.602Z,6.27
2018-02-02T10:58:34.109Z,8.20
2018-02-02T11:01:07.145Z,15.57
2018-02-02T11:06:32.753Z,8.00
2018-02-02T11:09:00.961Z,14.37
2018-02-02T11:11:28.444Z,15.80
2018-02-02T11:13:55.894Z,3.70
2018-02-02T11:16:23.382Z,9.03
2018-02-02T11:18:50.841Z,13.00
2018-02-02T11:21:18.333Z,10.63
2018-02-02T11:23:45.799Z,8.93
2018-02-02T11:26:13.249Z,8.60
2018-02-02T11:28:40.745Z,15.57
2018-02-02T11:31:08.201Z,15.10
2018-02-02T11:33:35.840Z,11.27
2018-02-02T11:36:03.329Z,16.27
2018-02-02T11:38:30.787Z,10.87
2018-02-02T11:40:58.253Z,3.83
2018-02-02T11:43:25.714Z,14.47
2018-02-02T11:45:53.182Z,9.07
2018-02-02T11:48:20.671Z,13.60
2018-02-02T11:50:48.146Z,16.50
2018-02-02T11:53:15.621Z,13.50
2018-02-02T11:55:43.074Z,4.97
2018-02-02T11:58:10.606Z,9.80
2018-02-02T12:00:38.090Z,6.70
2018-02-02T12:03:05.537Z,10.23
2018-02-02T12:05:32.997Z,14.07
2018-02-02T12:08:00.480Z,5.20
2018-02-02T12:10:27.938Z,11.13
2018-02-02T12:12:55.439Z,4.80
2018-02-02T12:15:22.898Z,9.93
2018-02-02T12:17:51.114Z,6.07
2018-02-02T12:20:18.594Z,9.60
2018-02-02T12:22:46.851Z,6.97
2018-02-02T12:25:20.023Z,6.30
2018-02-02T12:28:07.321Z,3.80
2018-02-02T12:33:41.477Z,3.00
2018-02-02T12:36:18.876Z,8.33
2018-02-02T12:38:46.359Z,6.17
2018-02-02T12:41:13.840Z,5.07
2018-02-02T12:43:41.329Z,2.87
2018-02-02T12:46:09.549Z,4.30
2018-02-02T12:48:40.892Z,6.27
2018-02-02T12:51:16.797Z,4.93
2018-02-02T12:53:44.277Z,4.60
2018-02-02T12:56:12.536Z,2.93
2018-02-02T12:58:40.758Z,8.43
2018-02-02T13:01:08.217Z,5.17
2018-02-02T13:03:35.673Z,2.60
2018-02-02T13:06:03.124Z,4.60
2018-02-02T13:08:30.611Z,6.20
2018-02-02T13:10:58.086Z,3.60
2018-02-02T13:13:25.545Z,6.03
2018-02-02T13:15:53.017Z,3.33
2018-02-02T13:18:20.470Z,6.93
2018-02-02T13:20:47.950Z,3.27
2018-02-02T13:23:15.403Z,3.53
2018-02-02T13:25:42.873Z,5.47
2018-02-02T13:28:10.430Z,6.83
2018-02-02T13:30:38.654Z,1.97
2018-02-02T13:33:06.130Z,6.70
2018-02-02T13:35:33.593Z,1.80
2018-02-02T13:38:01.042Z,1.10
2018-02-02T13:40:28.514Z,3.90
2018-02-02T13:42:56.750Z,4.20
2018-02-02T13:45:24.229Z,1.53
2018-02-02T13:47:51.678Z,2.23
2018-02-02T13:50:19.194Z,4.70
2018-02-02T13:52:46.637Z,7.63
2018-02-02T13:55:14.874Z,3.20
2018-02-02T13:57:42.320Z,3.47
2018-02-02T14:00:09.796Z,3.00
2018-02-02T14:02:37.429Z,1.10
2018-02-02T14:05:04.898Z,6.53
2018-02-02T14:07:32.497Z,2.70
2018-02-02T14:09:59.945Z,1.67
2018-02-02T14:12:27.398Z,1.77
2018-02-02T14:14:54.866Z,3.80
2018-02-02T14:17:22.326Z,3.37
2018-02-02T14:19:49.814Z,5.23
2018-02-02T14:22:17.278Z,2.90
2018-02-02T14:24:44.734Z,2.93
2018-02-02T14:27:12.208Z,2.90
2018-02-02T14:29:39.658Z,6.53
2018-02-02T14:32:07.134Z,1.83
2018-02-02T14:34:34.593Z,2.40
2018-02-02T14:37:02.098Z,2.83
2018-02-02T14:39:30.324Z,14.10
2018-02-02T14:41:57.786Z,9.73
2018-02-02T14:44:25.262Z,3.57
2018-02-02T14:46:52.717Z,3.77
2018-02-02T14:49:20.253Z,1.13
2018-02-02T14:51:47.736Z,4.57
2018-02-02T14:54:15.190Z,1.43
2018-02-02T14:56:42.668Z,1.83
2018-02-02T14:59:10.166Z,1.90
2018-02-02T15:01:37.637Z,2.20
2018-02-02T15:04:05.163Z,3.80
2018-02-02T15:06:32.608Z,2.33
2018-02-02T15:09:00.066Z,3.73
2018-02-02T15:11:27.549Z,3.07
2018-02-02T15:13:55.778Z,6.37
2018-02-02T15:16:23.286Z,5.17
2018-02-02T15:18:51.545Z,1.97
2018-02-02T15:21:19.770Z,2.03
2018-02-02T15:23:47.250Z,2.63
2018-02-02T15:26:14.729Z,3.50
2018-02-02T15:28:42.182Z,4.30
2018-02-02T15:31:09.653Z,6.60
2018-02-02T15:33:37.158Z,3.73
2018-02-02T15:36:04.627Z,4.03
2018-02-02T15:38:32.074Z,2.13
2018-02-02T15:40:59.549Z,9.10
2018-02-02T15:43:27.014Z,4.23
2018-02-02T15:45:54.481Z,5.40
2018-02-02T15:48:21.934Z,5.70
2018-02-02T15:50:49.408Z,2.43
2018-02-02T15:53:16.863Z,2.17
2018-02-02T15:55:44.354Z,6.57
2018-02-02T15:58:11.817Z,4.60
2018-02-02T16:00:39.311Z,5.87
2018-02-02T16:03:06.822Z,9.47
2018-02-02T16:05:34.317Z,11.03
2018-02-02T16:08:01.776Z,10.97
2018-02-02T16:10:29.274Z,3.90
2018-02-02T16:12:56.761Z,4.20
2018-02-02T16:15:24.214Z,6.43
2018-02-02T16:17:51.727Z,11.33
2018-02-02T16:20:19.210Z,4.83
2018-02-02T16:22:46.677Z,7.93
2018-02-02T16:25:14.137Z,6.83
2018-02-02T16:27:42.382Z,4.70
2018-02-02T16:30:15.509Z,1.50
2018-02-02T16:32:42.954Z,2.40
2018-02-02T16:35:10.406Z,3.50
2018-02-02T16:37:37.880Z,13.30
2018-02-02T16:40:05.330Z,3.23
2018-02-02T16:42:32.810Z,2.80
2018-02-02T16:45:00.314Z,2.33
2018-02-02T16:47:30.233Z,6.53
2018-02-02T16:49:58.510Z,4.17
2018-02-02T16:52:26.438Z,3.90
2018-02-02T16:54:54.210Z,3.43
2018-02-02T16:57:21.676Z,2.70
2018-02-02T16:59:49.216Z,7.43
2018-02-02T17:02:16.679Z,3.20
2018-02-02T17:04:44.134Z,3.50
2018-02-02T17:07:11.610Z,2.30
2018-02-02T17:09:39.059Z,2.87
2018-02-02T17:12:06.555Z,4.30
2018-02-02T17:14:34.014Z,7.03
2018-02-02T17:17:01.474Z,4.97
2018-02-02T17:19:28.988Z,3.13
2018-02-02T17:21:57.996Z,2.37
2018-02-02T17:24:25.477Z,4.30
2018-02-02T17:26:52.938Z,2.60
2018-02-02T17:29:20.385Z,8.50
2018-02-02T17:31:48.152Z,92.67
2018-02-02T17:34:15.943Z,20.87
2018-02-02T17:36:43.416Z,2.60
2018-02-02T17:39:10.918Z,32.63
2018-02-02T17:41:38.360Z,3.90
2018-02-02T17:44:05.862Z,3.97
2018-02-02T17:46:33.447Z,5.20
2018-02-02T17:49:00.930Z,10.60
2018-02-02T17:51:28.529Z,9.20
2018-02-02T17:53:56.019Z,4.57
2018-02-02T17:56:23.474Z,8.53
2018-02-02T17:58:50.954Z,5.63
2018-02-02T18:01:21.362Z,11.17
2018-02-02T18:03:48.845Z,16.00
2018-02-02T18:06:17.069Z,3.17
2018-02-02T18:08:44.565Z,6.83
2018-02-02T18:11:12.814Z,1.60
2018-02-02T18:13:40.298Z,9.03
2018-02-02T18:16:07.749Z,6.83
2018-02-02T18:18:35.275Z,3.50
2018-02-02T18:21:02.743Z,12.10
2018-02-02T18:23:30.229Z,7.17
2018-02-02T18:25:58.846Z,3.57
2018-02-02T18:28:26.569Z,6.60
2018-02-02T18:30:54.346Z,12.03
2018-02-02T18:33:22.432Z,10.23
2018-02-02T18:35:50.169Z,6.20
2018-02-02T18:38:17.834Z,10.30
2018-02-02T18:40:45.312Z,6.90
2018-02-02T18:43:12.809Z,5.67
2018-02-02T18:45:40.363Z,8.77
2018-02-02T18:48:07.868Z,10.23
2018-02-02T18:50:35.341Z,9.33
2018-02-02T18:53:02.797Z,2.93
2018-02-02T18:55:30.326Z,5.60
2018-02-02T18:57:58.666Z,8.40
2018-02-02T19:00:26.926Z,6.97
2018-02-02T19:02:55.481Z,4.37
2018-02-02T19:05:23.024Z,6.00
2018-02-02T19:07:50.621Z,5.13
2018-02-02T19:10:18.113Z,10.70
2018-02-02T19:12:45.566Z,10.90
2018-02-02T19:15:13.058Z,7.67
2018-02-02T19:17:40.506Z,5.80
2018-02-02T19:20:07.969Z,6.40
2018-02-02T19:22:35.437Z,4.43
2018-02-02T19:25:02.908Z,10.63
2018-02-02T19:27:30.483Z,9.30
2018-02-02T19:29:58.850Z,3.53
2018-02-02T19:32:26.289Z,9.03
2018-02-02T19:34:53.761Z,11.17
2018-02-02T19:37:21.242Z,7.97
2018-02-02T19:39:48.925Z,8.37
2018-02-02T19:42:16.425Z,5.17
2018-02-02T19:44:43.996Z,12.97
2018-02-02T19:47:11.499Z,8.30
2018-02-02T19:49:39.306Z,11.77
2018-02-02T19:52:06.901Z,4.80
2018-02-02T19:54:34.357Z,6.63
2018-02-02T19:57:01.841Z,4.47
2018-02-02T19:59:30.232Z,4.90
2018-02-02T20:01:57.828Z,10.73
2018-02-02T20:04:25.485Z,7.73
2018-02-02T20:06:53.032Z,4.67
2018-02-02T20:09:20.605Z,4.87
2018-02-02T20:11:48.213Z,6.10
2018-02-02T20:14:16.556Z,14.83
2018-02-02T20:16:44.037Z,14.63
2018-02-02T20:19:11.650Z,5.80
2018-02-02T20:21:39.152Z,7.73
2018-02-02T20:24:06.738Z,8.10
2018-02-02T20:26:35.235Z,9.93
2018-02-02T20:29:02.803Z,14.80
2018-02-02T20:31:30.434Z,12.03
2018-02-02T20:33:58.092Z,13.40
2018-02-02T20:36:25.673Z,8.83
2018-02-02T20:38:53.215Z,9.00
2018-02-02T20:41:20.792Z,6.60
2018-02-02T20:43:48.463Z,12.87
2018-02-02T20:46:16.876Z,4.20
2018-02-02T20:48:44.537Z,8.50
2018-02-02T20:51:12.099Z,10.43
2018-02-02T20:53:39.706Z,3.90
2018-02-02T20:56:07.356Z,4.27
2018-02-02T20:58:36.046Z,14.63
2018-02-02T21:01:04.345Z,5.27
2018-02-02T21:03:32.710Z,12.30
2018-02-02T21:06:00.171Z,7.97
2018-02-02T21:08:28.425Z,5.70
2018-02-02T21:10:55.897Z,9.40
2018-02-02T21:13:23.411Z,6.03
2018-02-02T21:15:50.917Z,8.80
2018-02-02T21:18:18.556Z,4.80
2018-02-02T21:20:46.091Z,4.03
2018-02-02T21:23:13.624Z,5.00
2018-02-02T21:25:41.139Z,11.20
2018-02-02T21:28:08.637Z,7.47
2018-02-02T21:30:36.939Z,5.70
2018-02-02T21:33:04.413Z,20.27
2018-02-02T21:35:31.908Z,6.63
2018-02-02T21:37:59.397Z,10.27
2018-02-02T21:40:26.869Z,7.30
2018-02-02T21:42:54.345Z,13.83
2018-02-02T21:45:21.810Z,4.53
2018-02-02T21:47:49.285Z,12.73
2018-02-02T21:50:16.741Z,7.80
2018-02-02T21:52:44.213Z,15.03
2018-02-02T21:55:11.666Z,4.93
2018-02-02T21:57:39.928Z,6.50
2018-02-02T22:00:07.378Z,7.13
2018-02-02T22:02:34.832Z,9.03
2018-02-02T22:05:02.301Z,5.50
2018-02-02T22:07:29.797Z,5.37
2018-02-02T22:09:58.069Z,6.00
2018-02-02T22:12:25.567Z,6.13
2018-02-02T22:14:53.138Z,12.53
2018-02-02T22:17:20.598Z,11.90
2018-02-02T22:19:48.086Z,6.10
2018-02-02T22:22:15.557Z,9.37
2018-02-02T22:24:43.014Z,10.73
2018-02-02T22:27:10.491Z,9.47
2018-02-02T22:29:38.738Z,5.77
2018-02-02T22:32:06.225Z,12.50
2018-02-02T22:34:34.441Z,6.10
2018-02-02T22:37:01.922Z,6.50
2018-02-02T22:39:29.410Z,9.30
2018-02-02T22:41:56.896Z,9.97
2018-02-02T22:44:24.346Z,6.27
2018-02-02T22:46:52.614Z,5.03
2018-02-02T22:49:20.833Z,8.07
2018-02-02T22:51:48.294Z,14.10
2018-02-02T22:54:15.773Z,11.80
2018-02-02T22:56:43.254Z,14.00
2018-02-02T22:59:10.767Z,13.20
2018-02-02T23:01:38.231Z,12.37
2018-02-02T23:04:05.731Z,10.83
2018-02-02T23:06:33.198Z,19.87
2018-02-02T23:09:00.797Z,12.40
2018-02-02T23:11:28.253Z,18.27
2018-02-02T23:13:55.713Z,10.73
2018-02-02T23:16:23.194Z,9.23
2018-02-02T23:18:50.685Z,24.27
2018-02-02T23:21:18.141Z,8.20
2018-02-02T23:23:45.597Z,8.60
2018-02-02T23:26:13.082Z,16.47
2018-02-02T23:28:41.341Z,12.50
2018-02-02T23:31:08.793Z,19.60
2018-02-02T23:33:36.249Z,11.63
2018-02-02T23:36:03.718Z,14.63
2018-02-02T23:38:31.301Z,23.63
2018-02-02T23:40:58.757Z,16.73
2018-02-02T23:43:26.238Z,15.70
2018-02-02T23:45:53.733Z,11.67
2018-02-02T23:48:21.237Z,15.07
2018-02-02T23:50:48.695Z,6.60
2018-02-02T23:53:16.151Z,9.53
2018-02-02T23:55:43.626Z,12.97
2018-02-02T23:58:11.102Z,14.20
